createdAt,value
2018-08-30T00:00:39.465Z,73.1
2018-08-30T00:01:40.145Z,72.9
2018-08-30T00:02:40.817Z,73.1
2018-08-30T00:03:41.495Z,73.0
2018-08-30T00:04:42.172Z,73.2
2018-08-30T00:05:42.851Z,73.1
2018-08-30T00:06:43.571Z,73.2
2018-08-30T00:07:44.248Z,73.4
2018-08-30T00:08:44.926Z,73.4
2018-08-30T00:09:45.605Z,73.2
2018-08-30T00:10:46.279Z,72.9
2018-08-30T00:11:46.954Z,73.6
2018-08-30T00:12:47.678Z,73.5
2018-08-30T00:13:48.355Z,73.2
2018-08-30T00:14:49.031Z,73.4
2018-08-30T00:15:49.708Z,73.8
2018-08-30T00:16:50.382Z,73.7
2018-08-30T00:17:51.060Z,74.0
2018-08-30T00:18:51.736Z,74.4
2018-08-30T00:19:52.411Z,74.4
2018-08-30T00:20:53.137Z,74.1
2018-08-30T00:21:53.814Z,74.5
2018-08-30T00:22:54.492Z,74.7
2018-08-30T00:23:55.165Z,75.2
2018-08-30T00:24:55.842Z,75.1
2018-08-30T00:25:56.518Z,75.1
2018-08-30T00:26:57.199Z,75.4
2018-08-30T00:27:57.875Z,75.4
2018-08-30T00:28:58.597Z,75.2
2018-08-30T00:29:59.274Z,75.0
2018-08-30T00:31:00.040Z,75.3
2018-08-30T00:32:00.716Z,75.8
2018-08-30T00:33:01.392Z,75.8
2018-08-30T00:34:02.069Z,75.5
2018-08-30T00:35:02.748Z,75.8
2018-08-30T00:36:03.426Z,75.6
2018-08-30T00:37:04.100Z,75.5
2018-08-30T00:38:04.777Z,75.5
2018-08-30T00:39:05.452Z,75.5
2018-08-30T00:40:06.131Z,75.5
2018-08-30T00:41:06.813Z,75.8
2018-08-30T00:42:07.482Z,75.7
2018-08-30T00:43:08.158Z,75.4
2018-08-30T00:44:08.835Z,76.3
2018-08-30T00:45:09.513Z,76.0
2018-08-30T00:46:10.188Z,76.0
2018-08-30T00:47:10.868Z,76.1
2018-08-30T00:48:11.587Z,76.1
2018-08-30T00:49:12.265Z,76.5
2018-08-30T00:50:12.944Z,76.6
2018-08-30T00:51:13.615Z,76.5
2018-08-30T00:52:14.291Z,76.5
2018-08-30T00:53:14.968Z,76.8
2018-08-30T00:54:15.642Z,77.2
2018-08-30T00:55:16.319Z,77.1
2018-08-30T00:56:16.995Z,77.5
2018-08-30T00:57:17.672Z,77.4
2018-08-30T00:58:18.350Z,77.5
2018-08-30T00:59:19.070Z,77.1
2018-08-30T01:00:19.746Z,77.6
2018-08-30T01:01:20.422Z,77.6
2018-08-30T01:02:21.098Z,77.3
2018-08-30T01:03:21.774Z,77.9
2018-08-30T01:04:22.451Z,76.9
2018-08-30T01:05:23.127Z,77.3
2018-08-30T01:06:23.804Z,76.9
2018-08-30T01:07:24.479Z,77.2
2018-08-30T01:08:25.154Z,77.3
2018-08-30T01:09:25.835Z,77.0
2018-08-30T01:10:26.507Z,77.2
2018-08-30T01:11:27.182Z,77.4
2018-08-30T01:12:27.857Z,77.1
2018-08-30T01:13:28.534Z,77.3
2018-08-30T01:14:29.211Z,77.0
2018-08-30T01:15:29.888Z,77.6
2018-08-30T01:16:30.567Z,77.3
2018-08-30T01:17:31.239Z,77.2
2018-08-30T01:18:31.913Z,77.1
2018-08-30T01:19:32.591Z,77.1
2018-08-30T01:20:33.267Z,77.1
2018-08-30T01:21:33.948Z,77.3
2018-08-30T01:22:34.620Z,78.1
2018-08-30T01:23:35.295Z,78.2
2018-08-30T01:24:36.017Z,78.1
2018-08-30T01:25:36.692Z,78.2
2018-08-30T01:26:37.368Z,77.9
2018-08-30T01:27:38.047Z,78.0
2018-08-30T01:28:38.764Z,78.0
2018-08-30T01:29:39.442Z,77.7
2018-08-30T01:30:40.120Z,78.1
2018-08-30T01:31:40.794Z,77.9
2018-08-30T01:32:41.472Z,78.0
2018-08-30T01:33:42.149Z,77.7
2018-08-30T01:34:42.825Z,78.0
2018-08-30T01:35:43.502Z,78.0
2018-08-30T01:36:44.177Z,77.8
2018-08-30T01:37:44.853Z,77.9
2018-08-30T01:38:45.533Z,78.5
2018-08-30T01:39:46.206Z,78.2
2018-08-30T01:40:46.883Z,78.1
2018-08-30T01:41:47.559Z,78.4
2018-08-30T01:42:48.234Z,78.3
2018-08-30T01:43:48.912Z,78.9
2018-08-30T01:44:49.589Z,78.4
2018-08-30T01:45:50.265Z,78.6
2018-08-30T01:46:50.942Z,78.5
2018-08-30T01:47:51.618Z,78.5
2018-08-30T01:48:52.344Z,79.3
2018-08-30T01:49:53.009Z,79.0
2018-08-30T01:50:53.685Z,79.5
2018-08-30T01:51:54.360Z,79.2
2018-08-30T01:52:55.038Z,79.4
2018-08-30T01:53:55.758Z,79.6
2018-08-30T01:54:56.434Z,79.5
2018-08-30T01:55:57.110Z,79.7
2018-08-30T01:56:57.787Z,79.9
2018-08-30T01:57:58.462Z,79.8
2018-08-30T01:58:59.155Z,79.7
2018-08-30T01:59:59.861Z,79.7
2018-08-30T02:01:00.539Z,80.2
2018-08-30T02:02:01.218Z,80.0
2018-08-30T02:03:01.892Z,80.5
2018-08-30T02:04:02.566Z,80.5
2018-08-30T02:05:03.242Z,80.8
2018-08-30T02:06:03.918Z,80.5
2018-08-30T02:07:04.598Z,80.4
2018-08-30T02:08:05.273Z,80.8
2018-08-30T02:09:05.946Z,80.5
2018-08-30T02:10:06.625Z,80.7
2018-08-30T02:11:07.348Z,81.1
2018-08-30T02:12:08.028Z,81.2
2018-08-30T02:13:08.702Z,81.0
2018-08-30T02:14:09.379Z,80.9
2018-08-30T02:15:10.057Z,81.1
2018-08-30T02:16:10.732Z,81.4
2018-08-30T02:17:11.411Z,81.3
2018-08-30T02:18:12.088Z,81.3
2018-08-30T02:19:12.763Z,81.3
2018-08-30T02:20:13.438Z,81.0
2018-08-30T02:21:14.114Z,81.5
2018-08-30T02:22:14.791Z,81.6
2018-08-30T02:23:15.469Z,82.0
2018-08-30T02:24:16.144Z,81.9
2018-08-30T02:25:16.819Z,81.4
2018-08-30T02:26:17.529Z,82.1
2018-08-30T02:27:18.218Z,82.1
2018-08-30T02:28:18.895Z,82.2
2018-08-30T02:29:19.571Z,82.1
2018-08-30T02:30:20.247Z,82.1
2018-08-30T02:31:20.968Z,82.1
2018-08-30T02:32:21.643Z,82.2
2018-08-30T02:33:22.320Z,82.2
2018-08-30T02:34:22.996Z,82.3
2018-08-30T02:35:23.671Z,82.3
2018-08-30T02:36:24.347Z,82.3
2018-08-30T02:37:25.023Z,81.9
2018-08-30T02:38:25.706Z,81.9
2018-08-30T02:39:26.421Z,82.2
2018-08-30T02:40:27.099Z,82.1
2018-08-30T02:41:27.775Z,82.0
2018-08-30T02:42:28.451Z,82.2
2018-08-30T02:43:29.129Z,82.3
2018-08-30T02:44:29.852Z,82.2
2018-08-30T02:45:30.568Z,82.3
2018-08-30T02:46:31.243Z,82.2
2018-08-30T02:47:31.920Z,82.3
2018-08-30T02:48:32.641Z,82.3
2018-08-30T02:49:33.318Z,82.3
2018-08-30T02:50:33.994Z,82.4
2018-08-30T02:51:34.671Z,82.1
2018-08-30T02:52:35.347Z,82.0
2018-08-30T02:53:36.069Z,82.1
2018-08-30T02:54:36.744Z,82.4
2018-08-30T02:55:37.420Z,82.5
2018-08-30T02:56:38.098Z,82.6
2018-08-30T02:57:38.774Z,82.6
2018-08-30T02:58:39.447Z,82.5
2018-08-30T02:59:40.124Z,82.5
2018-08-30T03:00:40.799Z,82.4
2018-08-30T03:01:41.475Z,82.6
2018-08-30T03:02:42.162Z,83.4
2018-08-30T03:03:42.873Z,83.4
2018-08-30T03:04:43.549Z,83.7
2018-08-30T03:05:44.237Z,83.8
2018-08-30T03:06:44.945Z,84.0
2018-08-30T03:07:45.620Z,84.0
2018-08-30T03:08:46.297Z,84.8
2018-08-30T03:09:46.973Z,84.7
2018-08-30T03:10:47.650Z,85.3
2018-08-30T03:11:48.325Z,86.2
2018-08-30T03:12:49.001Z,86.3
2018-08-30T03:13:49.679Z,86.7
2018-08-30T03:14:50.355Z,88.0
2018-08-30T03:15:51.030Z,90.3
2018-08-30T03:16:51.708Z,91.0
2018-08-30T03:17:52.382Z,90.4
2018-08-30T03:18:53.060Z,90.9
2018-08-30T03:19:53.735Z,91.1
2018-08-30T03:20:54.413Z,91.0
2018-08-30T03:21:55.088Z,91.0
2018-08-30T03:22:55.763Z,91.6
2018-08-30T03:23:56.441Z,92.6
2018-08-30T03:24:57.118Z,93.2
2018-08-30T03:25:57.794Z,93.6
2018-08-30T03:26:58.470Z,94.7
2018-08-30T03:27:59.147Z,94.4
2018-08-30T03:28:59.822Z,95.0
2018-08-30T03:30:00.539Z,95.5
2018-08-30T03:31:01.296Z,95.9
2018-08-30T03:32:01.860Z,95.3
2018-08-30T03:33:02.528Z,96.2
2018-08-30T03:34:03.204Z,96.2
2018-08-30T03:35:03.880Z,96.4
2018-08-30T03:36:04.554Z,97.1
2018-08-30T03:37:05.231Z,97.3
2018-08-30T03:38:05.907Z,97.4
2018-08-30T03:39:06.582Z,97.6
2018-08-30T03:40:07.259Z,97.6
2018-08-30T03:41:07.934Z,97.6
2018-08-30T03:42:08.612Z,98.6
2018-08-30T03:43:09.286Z,97.8
2018-08-30T03:44:09.970Z,98.0
2018-08-30T03:45:10.684Z,98.2
2018-08-30T03:46:11.358Z,98.4
2018-08-30T03:47:12.036Z,98.7
2018-08-30T03:48:12.777Z,98.5
2018-08-30T03:49:13.433Z,98.5
2018-08-30T03:50:14.153Z,98.8
2018-08-30T03:51:14.875Z,98.0
2018-08-30T03:52:15.564Z,97.6
2018-08-30T03:53:16.270Z,98.1
2018-08-30T03:54:16.949Z,98.4
2018-08-30T03:55:17.753Z,98.6
2018-08-30T03:56:18.344Z,98.6
2018-08-30T03:57:19.019Z,98.0
2018-08-30T03:58:19.694Z,97.9
2018-08-30T03:59:20.369Z,97.7
2018-08-30T04:00:21.047Z,97.8
2018-08-30T04:01:21.721Z,97.6
2018-08-30T04:02:22.412Z,97.6
2018-08-30T04:03:23.132Z,97.5
2018-08-30T04:04:23.837Z,97.4
2018-08-30T04:05:24.483Z,97.1
2018-08-30T04:06:25.199Z,97.1
2018-08-30T04:07:25.878Z,97.1
2018-08-30T04:08:26.556Z,97.3
2018-08-30T04:09:27.231Z,96.9
2018-08-30T04:10:27.907Z,96.9
2018-08-30T04:11:28.582Z,96.8
2018-08-30T04:12:29.291Z,96.5
2018-08-30T04:13:30.012Z,96.6
2018-08-30T04:14:30.643Z,96.9
2018-08-30T04:15:31.321Z,96.9
2018-08-30T04:16:31.995Z,96.8
2018-08-30T04:17:32.671Z,97.0
2018-08-30T04:18:33.349Z,96.0
2018-08-30T04:19:34.026Z,96.2
2018-08-30T04:20:34.702Z,96.4
2018-08-30T04:21:35.378Z,96.6
2018-08-30T04:22:36.057Z,95.9
2018-08-30T04:23:36.733Z,96.0
2018-08-30T04:24:37.410Z,96.2
2018-08-30T04:25:38.087Z,96.3
2018-08-30T04:26:38.763Z,96.1
2018-08-30T04:27:39.440Z,95.9
2018-08-30T04:28:40.117Z,96.4
2018-08-30T04:29:40.794Z,96.2
2018-08-30T04:30:41.474Z,96.2
2018-08-30T04:31:42.152Z,95.8
2018-08-30T04:32:42.823Z,96.2
2018-08-30T04:33:43.500Z,96.0
2018-08-30T04:34:44.177Z,95.6
2018-08-30T04:35:44.863Z,96.1
2018-08-30T04:36:45.535Z,96.0
2018-08-30T04:37:46.213Z,96.3
2018-08-30T04:38:46.893Z,96.5
2018-08-30T04:39:47.568Z,96.2
2018-08-30T04:40:48.245Z,96.3
2018-08-30T04:41:48.923Z,95.8
2018-08-30T04:42:49.769Z,96.6
2018-08-30T04:43:50.279Z,96.9
2018-08-30T04:44:50.955Z,97.1
2018-08-30T04:45:51.635Z,96.9
2018-08-30T04:46:52.312Z,96.6
2018-08-30T04:47:52.991Z,96.2
2018-08-30T04:48:53.669Z,96.0
2018-08-30T04:49:54.346Z,96.6
2018-08-30T04:50:55.025Z,96.8
2018-08-30T04:51:55.702Z,95.8
2018-08-30T04:52:56.384Z,96.4
2018-08-30T04:53:57.057Z,96.2
2018-08-30T04:54:57.736Z,95.7
2018-08-30T04:55:58.413Z,95.2
2018-08-30T04:56:59.093Z,94.4
2018-08-30T04:57:59.811Z,94.0
2018-08-30T04:59:00.491Z,94.2
2018-08-30T05:00:01.170Z,93.8
2018-08-30T05:01:01.848Z,93.8
2018-08-30T05:02:02.526Z,93.7
2018-08-30T05:03:03.207Z,93.1
2018-08-30T05:04:03.929Z,93.2
2018-08-30T05:05:04.610Z,93.1
2018-08-30T05:06:05.289Z,93.1
2018-08-30T05:07:05.968Z,92.0
2018-08-30T05:08:06.645Z,92.0
2018-08-30T05:09:07.324Z,91.1
2018-08-30T05:10:08.082Z,90.6
2018-08-30T05:11:08.682Z,90.5
2018-08-30T05:12:09.361Z,90.0
2018-08-30T05:13:10.042Z,90.2
2018-08-30T05:14:10.721Z,89.6
2018-08-30T05:15:11.403Z,89.5
2018-08-30T05:16:12.085Z,89.8
2018-08-30T05:17:12.764Z,89.8
2018-08-30T05:18:13.445Z,89.5
2018-08-30T05:19:14.125Z,89.0
2018-08-30T05:20:14.805Z,88.9
2018-08-30T05:21:15.485Z,88.2
2018-08-30T05:22:16.208Z,88.3
2018-08-30T05:23:16.888Z,88.3
2018-08-30T05:24:17.568Z,88.0
2018-08-30T05:25:18.247Z,87.9
2018-08-30T05:26:18.928Z,87.2
2018-08-30T05:27:19.613Z,87.7
2018-08-30T05:28:20.289Z,87.6
2018-08-30T05:29:20.971Z,86.8
2018-08-30T05:30:21.696Z,87.1
2018-08-30T05:31:22.376Z,86.9
2018-08-30T05:32:23.056Z,87.0
2018-08-30T05:33:23.736Z,87.1
2018-08-30T05:34:24.415Z,86.5
2018-08-30T05:35:25.108Z,86.4
2018-08-30T05:36:25.777Z,86.3
2018-08-30T05:37:26.457Z,86.3
2018-08-30T05:38:27.137Z,86.1
2018-08-30T05:39:27.817Z,85.6
2018-08-30T05:40:28.496Z,86.2
2018-08-30T05:41:29.175Z,86.0
2018-08-30T05:42:29.856Z,86.1
2018-08-30T05:43:30.535Z,86.0
2018-08-30T05:44:31.252Z,86.2
2018-08-30T05:45:31.896Z,85.5
2018-08-30T05:46:32.571Z,85.4
2018-08-30T05:47:33.251Z,85.7
2018-08-30T05:48:33.929Z,85.7
2018-08-30T05:49:34.609Z,86.6
2018-08-30T05:50:35.292Z,85.4
2018-08-30T05:51:35.967Z,85.6
2018-08-30T05:52:36.648Z,85.6
2018-08-30T05:53:37.326Z,85.4
2018-08-30T05:54:38.008Z,85.9
2018-08-30T05:55:38.683Z,85.5
2018-08-30T05:56:39.391Z,86.0
2018-08-30T05:57:40.089Z,85.7
2018-08-30T05:58:40.770Z,86.1
2018-08-30T05:59:41.491Z,85.9
2018-08-30T06:00:42.171Z,85.9
2018-08-30T06:01:42.849Z,85.8
2018-08-30T06:02:43.530Z,86.6
2018-08-30T06:03:44.209Z,86.6
2018-08-30T06:04:44.888Z,86.3
2018-08-30T06:05:45.567Z,86.4
2018-08-30T06:06:46.246Z,87.2
2018-08-30T06:07:46.943Z,87.1
2018-08-30T06:08:47.605Z,87.0
2018-08-30T06:09:48.284Z,86.8
2018-08-30T06:10:48.963Z,86.8
2018-08-30T06:11:49.642Z,87.3
2018-08-30T06:12:50.324Z,87.3
2018-08-30T06:13:51.003Z,86.7
2018-08-30T06:14:51.683Z,86.9
2018-08-30T06:15:52.364Z,87.2
2018-08-30T06:16:53.044Z,87.0
2018-08-30T06:17:53.798Z,86.7
2018-08-30T06:18:54.493Z,86.8
2018-08-30T06:19:55.177Z,87.0
2018-08-30T06:20:55.856Z,87.1
2018-08-30T06:21:56.532Z,87.2
2018-08-30T06:22:57.217Z,87.0
2018-08-30T06:23:57.894Z,87.1
2018-08-30T06:24:58.573Z,87.4
2018-08-30T06:25:59.254Z,87.2
2018-08-30T06:26:59.933Z,87.0
2018-08-30T06:28:00.614Z,86.9
2018-08-30T06:29:01.292Z,87.7
2018-08-30T06:30:02.015Z,87.8
2018-08-30T06:31:02.694Z,87.7
2018-08-30T06:32:03.372Z,87.7
2018-08-30T06:33:04.055Z,87.6
2018-08-30T06:34:04.743Z,87.8
2018-08-30T06:35:05.432Z,87.2
2018-08-30T06:36:06.143Z,87.7
2018-08-30T06:37:06.819Z,87.6
2018-08-30T06:38:07.546Z,87.6
2018-08-30T06:39:08.231Z,87.2
2018-08-30T06:40:08.950Z,87.0
2018-08-30T06:41:09.674Z,87.0
2018-08-30T06:42:10.414Z,87.4
2018-08-30T06:43:11.126Z,86.5
2018-08-30T06:44:11.804Z,86.3
2018-08-30T06:45:12.483Z,85.4
2018-08-30T06:46:13.165Z,85.5
2018-08-30T06:47:13.846Z,85.3
2018-08-30T06:48:14.526Z,85.7
2018-08-30T06:49:15.207Z,85.1
2018-08-30T06:50:15.886Z,84.9
2018-08-30T06:51:16.569Z,84.4
2018-08-30T06:52:17.248Z,84.9
2018-08-30T06:53:17.932Z,85.2
2018-08-30T06:54:18.609Z,84.8
2018-08-30T06:55:19.288Z,84.7
2018-08-30T06:56:19.995Z,84.7
2018-08-30T06:57:20.648Z,84.5
2018-08-30T06:58:21.379Z,84.2
2018-08-30T06:59:22.210Z,84.3
2018-08-30T07:00:22.892Z,84.0
2018-08-30T07:01:23.570Z,84.4
2018-08-30T07:02:24.249Z,84.1
2018-08-30T07:03:24.930Z,84.5
2018-08-30T07:04:25.611Z,83.7
2018-08-30T07:05:26.290Z,83.9
2018-08-30T07:06:26.969Z,83.7
2018-08-30T07:07:27.650Z,83.7
2018-08-30T07:08:28.332Z,83.8
2018-08-30T07:09:29.011Z,83.2
2018-08-30T07:10:29.691Z,82.8
2018-08-30T07:11:30.372Z,82.7
2018-08-30T07:12:31.050Z,82.6
2018-08-30T07:13:31.731Z,82.8
2018-08-30T07:14:32.450Z,82.2
2018-08-30T07:15:33.093Z,82.1
2018-08-30T07:16:33.815Z,82.4
2018-08-30T07:17:34.506Z,82.6
2018-08-30T07:18:35.177Z,82.4
2018-08-30T07:19:35.855Z,83.1
2018-08-30T07:20:36.534Z,82.6
2018-08-30T07:21:37.216Z,83.0
2018-08-30T07:22:37.895Z,82.7
2018-08-30T07:23:38.573Z,82.8
2018-08-30T07:24:39.253Z,82.5
2018-08-30T07:25:39.931Z,82.9
2018-08-30T07:26:40.610Z,82.8
2018-08-30T07:27:41.289Z,83.8
2018-08-30T07:28:42.069Z,83.6
2018-08-30T07:29:42.647Z,83.9
2018-08-30T07:30:43.326Z,83.8
2018-08-30T07:31:44.007Z,83.7
2018-08-30T07:32:44.685Z,84.0
2018-08-30T07:33:45.364Z,83.9
2018-08-30T07:34:46.199Z,84.5
2018-08-30T07:35:46.769Z,84.1
2018-08-30T07:36:47.449Z,84.5
2018-08-30T07:37:48.128Z,84.6
2018-08-30T07:38:48.809Z,84.3
2018-08-30T07:39:49.487Z,84.3
2018-08-30T07:40:50.217Z,84.2
2018-08-30T07:41:50.998Z,84.5
2018-08-30T07:42:51.619Z,84.6
2018-08-30T07:43:52.297Z,84.6
2018-08-30T07:44:52.978Z,84.6
2018-08-30T07:45:53.659Z,84.5
2018-08-30T07:46:54.338Z,84.4
2018-08-30T07:47:55.019Z,84.4
2018-08-30T07:48:55.698Z,84.1
2018-08-30T07:49:56.379Z,84.7
2018-08-30T07:50:57.160Z,84.7
2018-08-30T07:51:57.741Z,84.2
2018-08-30T07:52:58.421Z,84.2
2018-08-30T07:53:59.100Z,84.3
2018-08-30T07:54:59.781Z,84.4
2018-08-30T07:56:00.459Z,84.3
2018-08-30T07:57:01.186Z,84.5
2018-08-30T07:58:01.871Z,84.3
2018-08-30T07:59:02.604Z,83.8
2018-08-30T08:00:03.372Z,83.6
2018-08-30T08:01:03.995Z,83.1
2018-08-30T08:02:04.675Z,83.4
2018-08-30T08:03:05.356Z,82.8
2018-08-30T08:04:06.036Z,83.0
2018-08-30T08:05:06.715Z,83.2
2018-08-30T08:06:07.487Z,82.9
2018-08-30T08:07:08.124Z,83.1
2018-08-30T08:08:08.751Z,83.0
2018-08-30T08:09:09.436Z,82.6
2018-08-30T08:10:10.156Z,82.7
2018-08-30T08:11:10.837Z,82.2
2018-08-30T08:12:11.559Z,82.6
2018-08-30T08:13:12.241Z,83.1
2018-08-30T08:14:12.963Z,83.2
2018-08-30T08:15:13.644Z,82.9
2018-08-30T08:16:14.322Z,82.5
2018-08-30T08:17:15.003Z,81.9
2018-08-30T08:18:15.681Z,82.2
2018-08-30T08:19:16.362Z,82.2
2018-08-30T08:20:17.042Z,82.0
2018-08-30T08:21:17.720Z,81.9
2018-08-30T08:22:18.407Z,81.6
2018-08-30T08:23:19.085Z,82.0
2018-08-30T08:24:19.768Z,81.9
2018-08-30T08:25:20.500Z,82.0
2018-08-30T08:26:21.128Z,81.9
2018-08-30T08:27:21.809Z,81.7
2018-08-30T08:28:22.490Z,81.4
2018-08-30T08:29:23.170Z,81.4
2018-08-30T08:30:23.851Z,81.3
2018-08-30T08:31:24.583Z,80.8
2018-08-30T08:32:25.214Z,80.4
2018-08-30T08:33:25.895Z,80.0
2018-08-30T08:34:26.576Z,80.1
2018-08-30T08:35:27.304Z,80.3
2018-08-30T08:36:27.997Z,80.6
2018-08-30T08:37:28.708Z,80.6
2018-08-30T08:38:29.389Z,80.1
2018-08-30T08:39:30.070Z,80.3
2018-08-30T08:40:30.748Z,80.0
2018-08-30T08:41:31.429Z,79.9
2018-08-30T08:42:32.109Z,80.4
2018-08-30T08:43:32.791Z,81.2
2018-08-30T08:44:33.472Z,81.3
2018-08-30T08:45:34.152Z,82.0
2018-08-30T08:46:34.834Z,82.6
2018-08-30T08:47:35.560Z,82.1
2018-08-30T08:48:36.200Z,82.0
2018-08-30T08:49:36.874Z,82.4
2018-08-30T08:50:37.557Z,83.2
2018-08-30T08:51:38.232Z,83.0
2018-08-30T08:52:38.915Z,82.5
2018-08-30T08:53:39.634Z,83.4
2018-08-30T08:54:40.312Z,83.7
2018-08-30T08:55:41.012Z,83.7
2018-08-30T08:56:41.717Z,83.8
2018-08-30T08:57:42.417Z,83.8
2018-08-30T08:58:43.124Z,84.0
2018-08-30T08:59:43.805Z,83.8
2018-08-30T09:00:44.485Z,84.5
2018-08-30T09:01:45.163Z,84.5
2018-08-30T09:02:45.845Z,84.5
2018-08-30T09:03:46.527Z,84.6
2018-08-30T09:04:47.208Z,84.8
2018-08-30T09:05:47.889Z,84.6
2018-08-30T09:06:48.570Z,84.6
2018-08-30T09:07:49.295Z,84.3
2018-08-30T09:08:49.931Z,84.0
2018-08-30T09:09:50.612Z,83.8
2018-08-30T09:10:51.342Z,84.5
2018-08-30T09:11:52.021Z,84.4
2018-08-30T09:12:52.701Z,84.4
2018-08-30T09:13:53.382Z,84.6
2018-08-30T09:14:54.065Z,84.6
2018-08-30T09:15:54.838Z,83.7
2018-08-30T09:16:55.518Z,83.8
2018-08-30T09:17:56.197Z,84.1
2018-08-30T09:18:56.877Z,83.8
2018-08-30T09:19:57.557Z,84.2
2018-08-30T09:20:58.235Z,83.7
2018-08-30T09:21:58.917Z,83.8
2018-08-30T09:22:59.662Z,83.8
2018-08-30T09:24:00.277Z,83.2
2018-08-30T09:25:00.963Z,83.3
2018-08-30T09:26:01.639Z,82.8
2018-08-30T09:27:02.371Z,83.1
2018-08-30T09:28:03.001Z,82.7
2018-08-30T09:29:03.681Z,82.4
2018-08-30T09:30:04.400Z,82.4
2018-08-30T09:31:05.142Z,82.2
2018-08-30T09:32:05.725Z,82.3
2018-08-30T09:33:06.407Z,82.3
2018-08-30T09:34:07.089Z,81.9
2018-08-30T09:35:07.814Z,81.6
2018-08-30T09:36:08.494Z,81.2
2018-08-30T09:37:09.174Z,81.6
2018-08-30T09:38:09.857Z,81.5
2018-08-30T09:39:10.536Z,81.8
2018-08-30T09:40:11.217Z,81.9
2018-08-30T09:41:11.896Z,81.8
2018-08-30T09:42:12.578Z,82.2
2018-08-30T09:43:13.260Z,81.9
2018-08-30T09:44:13.946Z,82.3
2018-08-30T09:45:14.669Z,81.8
2018-08-30T09:46:15.347Z,81.5
2018-08-30T09:47:16.028Z,80.1
2018-08-30T09:48:16.709Z,80.2
2018-08-30T09:49:17.400Z,80.3
2018-08-30T09:50:18.071Z,80.3
2018-08-30T09:51:18.753Z,79.9
2018-08-30T09:52:19.434Z,78.6
2018-08-30T09:53:20.113Z,79.0
2018-08-30T09:54:20.794Z,78.3
2018-08-30T09:55:21.474Z,78.7
2018-08-30T09:56:22.154Z,78.2
2018-08-30T09:57:22.997Z,78.2
2018-08-30T09:58:23.517Z,78.1
2018-08-30T09:59:24.198Z,77.8
2018-08-30T10:00:24.881Z,77.7
2018-08-30T10:01:25.564Z,77.0
2018-08-30T10:02:26.242Z,76.6
2018-08-30T10:03:26.925Z,77.1
2018-08-30T10:04:27.606Z,76.8
2018-08-30T10:05:28.286Z,77.3
2018-08-30T10:06:28.969Z,77.8
2018-08-30T10:07:29.651Z,77.3
2018-08-30T10:08:30.331Z,77.0
2018-08-30T10:09:31.013Z,76.6
2018-08-30T10:10:31.735Z,77.4
2018-08-30T10:11:32.415Z,76.9
2018-08-30T10:12:33.095Z,76.9
2018-08-30T10:13:33.775Z,76.6
2018-08-30T10:14:34.456Z,76.8
2018-08-30T10:15:35.137Z,77.1
2018-08-30T10:16:35.818Z,76.8
2018-08-30T10:17:36.497Z,76.6
2018-08-30T10:18:37.179Z,76.9
2018-08-30T10:19:37.859Z,76.7
2018-08-30T10:20:38.589Z,76.7
2018-08-30T10:21:39.339Z,76.9
2018-08-30T10:22:39.954Z,76.7
2018-08-30T10:23:40.634Z,76.8
2018-08-30T10:24:41.315Z,76.9
2018-08-30T10:25:42.027Z,76.5
2018-08-30T10:26:42.675Z,76.9
2018-08-30T10:27:43.356Z,76.8
2018-08-30T10:28:44.385Z,76.9
2018-08-30T10:29:45.003Z,76.9
2018-08-30T10:30:45.682Z,77.0
2018-08-30T10:31:46.363Z,77.7
2018-08-30T10:32:47.043Z,77.8
2018-08-30T10:33:47.725Z,77.7
2018-08-30T10:34:48.405Z,77.6
2018-08-30T10:35:49.086Z,77.6
2018-08-30T10:36:49.784Z,77.3
2018-08-30T10:37:50.480Z,77.9
2018-08-30T10:40:06.729Z,78.3
2018-08-30T10:41:07.415Z,78.1
2018-08-30T10:42:08.152Z,79.0
2018-08-30T10:43:08.837Z,78.2
2018-08-30T10:44:09.525Z,78.6
2018-08-30T10:45:10.260Z,78.0
2018-08-30T10:46:10.944Z,77.9
2018-08-30T10:47:11.630Z,78.1
2018-08-30T10:48:12.315Z,78.1
2018-08-30T10:49:13.052Z,78.1
2018-08-30T10:50:13.740Z,78.0
2018-08-30T10:51:14.446Z,77.9
2018-08-30T10:52:15.163Z,77.7
2018-08-30T10:53:15.850Z,77.0
2018-08-30T10:54:16.536Z,77.0
2018-08-30T10:55:17.222Z,76.6
2018-08-30T10:56:18.006Z,76.3
2018-08-30T10:57:18.694Z,76.2
2018-08-30T10:58:19.392Z,75.3
2018-08-30T10:59:20.064Z,75.6
2018-08-30T11:00:20.752Z,75.4
2018-08-30T11:01:21.438Z,75.5
2018-08-30T11:02:22.176Z,75.5
2018-08-30T11:03:22.863Z,74.2
2018-08-30T11:04:23.570Z,74.2
2018-08-30T11:05:24.236Z,73.9
2018-08-30T11:06:24.978Z,73.6
2018-08-30T11:07:25.686Z,73.7
2018-08-30T11:08:26.404Z,73.2
2018-08-30T11:09:27.091Z,72.7
2018-08-30T11:10:27.778Z,72.8
2018-08-30T11:11:28.515Z,73.2
2018-08-30T11:12:29.255Z,72.6
2018-08-30T11:13:29.999Z,73.1
2018-08-30T11:14:30.624Z,72.8
2018-08-30T11:15:31.310Z,73.4
2018-08-30T11:16:32.047Z,73.0
2018-08-30T11:17:32.733Z,73.0
2018-08-30T11:18:33.417Z,72.7
2018-08-30T11:19:34.149Z,72.9
2018-08-30T11:20:34.786Z,73.0
2018-08-30T11:21:35.517Z,72.9
2018-08-30T11:22:36.198Z,72.5
2018-08-30T11:23:36.930Z,72.8
2018-08-30T11:24:37.663Z,73.1
2018-08-30T11:25:38.390Z,72.9
2018-08-30T11:26:39.069Z,72.9
2018-08-30T11:27:39.751Z,72.4
2018-08-30T11:28:40.436Z,72.6
2018-08-30T11:29:41.174Z,72.2
2018-08-30T11:30:41.900Z,72.2
2018-08-30T11:31:42.623Z,72.2
2018-08-30T11:32:43.319Z,72.0
2018-08-30T11:33:44.004Z,72.1
2018-08-30T11:34:44.691Z,71.7
2018-08-30T11:35:45.438Z,70.7
2018-08-30T11:36:46.149Z,71.2
2018-08-30T11:37:46.876Z,70.5
2018-08-30T11:38:47.513Z,70.1
2018-08-30T11:39:48.192Z,69.5
2018-08-30T11:40:48.873Z,68.4
2018-08-30T11:41:49.670Z,68.5
2018-08-30T11:42:50.235Z,68.7
2018-08-30T11:43:50.919Z,68.1
2018-08-30T11:44:51.599Z,67.8
2018-08-30T11:45:52.312Z,67.3
2018-08-30T11:46:53.003Z,67.1
2018-08-30T11:47:53.687Z,66.5
2018-08-30T11:48:54.384Z,65.8
2018-08-30T11:49:55.092Z,64.8
2018-08-30T11:50:55.774Z,64.7
2018-08-30T11:51:56.454Z,64.6
2018-08-30T11:52:57.135Z,64.2
2018-08-30T11:53:57.818Z,62.9
2018-08-30T11:54:58.546Z,63.0
2018-08-30T11:55:59.240Z,62.4
2018-08-30T11:56:59.867Z,62.6
2018-08-30T11:58:00.549Z,63.1
2018-08-30T11:59:01.230Z,63.3
2018-08-30T12:00:01.912Z,63.7
2018-08-30T12:01:02.637Z,63.5
2018-08-30T12:02:03.320Z,64.0
2018-08-30T12:03:04.000Z,63.8
2018-08-30T12:04:04.684Z,63.7
2018-08-30T12:05:05.365Z,62.4
2018-08-30T12:06:06.048Z,62.2
2018-08-30T12:07:06.731Z,61.5
2018-08-30T12:08:07.471Z,61.2
2018-08-30T12:09:08.132Z,60.3
2018-08-30T12:10:08.871Z,59.9
2018-08-30T12:11:09.694Z,60.7
2018-08-30T12:12:10.178Z,60.7
2018-08-30T12:13:10.859Z,60.2
2018-08-30T12:14:11.546Z,60.5
2018-08-30T12:15:12.265Z,60.5
2018-08-30T12:16:12.947Z,60.9
2018-08-30T12:17:13.631Z,61.3
2018-08-30T12:18:14.313Z,61.3
2018-08-30T12:19:14.994Z,61.8
2018-08-30T12:20:15.744Z,61.9
2018-08-30T12:21:16.396Z,62.1
2018-08-30T12:22:17.079Z,62.2
2018-08-30T12:23:17.760Z,62.6
2018-08-30T12:24:18.442Z,63.1
2018-08-30T12:25:19.129Z,62.9
2018-08-30T12:26:19.849Z,63.0
2018-08-30T12:27:20.535Z,62.7
2018-08-30T12:28:21.247Z,62.7
2018-08-30T12:29:21.932Z,62.8
2018-08-30T12:30:22.605Z,62.1
2018-08-30T12:31:23.292Z,62.3
2018-08-30T12:32:23.942Z,61.5
2018-08-30T12:33:24.655Z,61.8
2018-08-30T12:34:25.317Z,61.2
2018-08-30T12:35:26.056Z,60.5
2018-08-30T12:36:26.717Z,60.6
2018-08-30T12:37:27.398Z,60.3
2018-08-30T12:38:28.106Z,60.3
2018-08-30T12:39:28.734Z,60.2
2018-08-30T12:40:29.444Z,59.8
2018-08-30T12:41:30.124Z,59.7
2018-08-30T12:42:30.817Z,59.6
2018-08-30T12:43:31.677Z,59.4
2018-08-30T12:44:32.140Z,59.6
2018-08-30T12:45:32.861Z,59.3
2018-08-30T12:46:33.522Z,59.8
2018-08-30T12:47:34.171Z,59.0
2018-08-30T12:48:34.860Z,59.5
2018-08-30T12:49:35.535Z,59.4
2018-08-30T12:50:36.364Z,59.7
2018-08-30T12:51:37.122Z,59.7
2018-08-30T12:52:37.733Z,59.4
2018-08-30T12:53:38.559Z,59.4
2018-08-30T12:54:39.097Z,60.0
2018-08-30T12:55:39.810Z,60.1
2018-08-30T12:56:40.468Z,59.8
2018-08-30T12:57:41.179Z,60.4
2018-08-30T12:58:41.909Z,60.6
2018-08-30T12:59:42.605Z,60.1
2018-08-30T13:00:43.249Z,60.8
2018-08-30T13:01:43.970Z,60.8
2018-08-30T13:02:44.689Z,60.9
2018-08-30T13:03:45.332Z,61.2
2018-08-30T13:04:46.130Z,60.4
2018-08-30T13:05:46.890Z,60.8
2018-08-30T13:06:47.360Z,60.4
2018-08-30T13:07:48.081Z,60.6
2018-08-30T13:08:48.889Z,60.5
2018-08-30T13:09:49.595Z,60.0
2018-08-30T13:10:50.314Z,60.0
2018-08-30T13:11:51.002Z,60.1
2018-08-30T13:12:51.629Z,59.8
2018-08-30T13:13:52.037Z,60.0
2018-08-30T13:14:53.005Z,59.8
2018-08-30T13:15:53.625Z,60.0
2018-08-30T13:16:54.252Z,60.2
2018-08-30T13:17:54.915Z,60.0
2018-08-30T13:18:55.735Z,60.0
2018-08-30T13:19:56.349Z,59.9
2018-08-30T13:20:57.023Z,59.9
2018-08-30T13:21:57.883Z,59.9
2018-08-30T13:22:58.531Z,59.7
2018-08-30T13:23:59.101Z,60.3
2018-08-30T13:24:59.873Z,60.3
2018-08-30T13:26:00.472Z,60.4
2018-08-30T13:27:01.248Z,60.5
2018-08-30T13:28:01.876Z,60.9
2018-08-30T13:29:02.698Z,61.6